sensor_id;sensor_type;location;lat;lon;timestamp;P1;durP1;ratioP1;P2;durP2;ratioP2
50591;SDS011;36548;50.506;30.834;2022-09-03T00:01:10;6.47;;;4.47;;
50591;SDS011;36548;50.506;30.834;2022-09-03T00:02:47;9.32;;;5.72;;
50591;SDS011;36548;50.506;30.834;2022-09-03T00:03:55;6.95;;;5.40;;
50591;SDS011;36548;50.506;30.834;2022-09-03T00:05:13;8.00;;;5.65;;
50591;SDS011;36548;50.506;30.834;2022-09-03T00:06:39;7.22;;;5.27;;
50591;SDS011;36548;50.506;30.834;2022-09-03T00:08:09;9.77;;;5.42;;
50591;SDS011;36548;50.506;30.834;2022-09-03T00:09:25;9.65;;;5.40;;
50591;SDS011;36548;50.506;30.834;2022-09-03T00:13:22;6.63;;;4.85;;
50591;SDS011;36548;50.506;30.834;2022-09-03T00:14:41;6.70;;;5.90;;
50591;SDS011;36548;50.506;30.834;2022-09-03T00:15:54;6.85;;;5.37;;
50591;SDS011;36548;50.506;30.834;2022-09-03T00:17:10;7.10;;;5.55;;
50591;SDS011;36548;50.506;30.834;2022-09-03T00:18:26;6.70;;;4.75;;
50591;SDS011;36548;50.506;30.834;2022-09-03T00:20:00;6.30;;;4.95;;
50591;SDS011;36548;50.506;30.834;2022-09-03T00:21:28;6.53;;;5.02;;
50591;SDS011;36548;50.506;30.834;2022-09-03T00:22:40;7.10;;;4.90;;
50591;SDS011;36548;50.506;30.834;2022-09-03T00:23:51;6.50;;;5.27;;
50591;SDS011;36548;50.506;30.834;2022-09-03T00:25:12;9.57;;;5.97;;
50591;SDS011;36548;50.506;30.834;2022-09-03T00:26:26;6.48;;;4.87;;
50591;SDS011;36548;50.506;30.834;2022-09-03T00:27:56;5.38;;;4.45;;
50591;SDS011;36548;50.506;30.834;2022-09-03T00:29:17;10.07;;;5.20;;
50591;SDS011;36548;50.506;30.834;2022-09-03T00:30:32;5.65;;;4.45;;
50591;SDS011;36548;50.506;30.834;2022-09-03T00:32:00;8.52;;;4.92;;
50591;SDS011;36548;50.506;30.834;2022-09-03T00:33:17;6.33;;;4.88;;
50591;SDS011;36548;50.506;30.834;2022-09-03T00:34:36;6.67;;;5.30;;
50591;SDS011;36548;50.506;30.834;2022-09-03T00:37:23;6.05;;;5.35;;
50591;SDS011;36548;50.506;30.834;2022-09-03T00:38:36;5.58;;;4.67;;
50591;SDS011;36548;50.506;30.834;2022-09-03T00:39:52;7.65;;;5.30;;
50591;SDS011;36548;50.506;30.834;2022-09-03T00:41:05;7.53;;;5.48;;
50591;SDS011;36548;50.506;30.834;2022-09-03T01:01:19;6.60;;;4.60;;
50591;SDS011;36548;50.506;30.834;2022-09-03T01:04:24;7.32;;;4.95;;
50591;SDS011;36548;50.506;30.834;2022-09-03T01:07:27;7.87;;;4.80;;
50591;SDS011;36548;50.506;30.834;2022-09-03T01:12:04;6.82;;;5.57;;
50591;SDS011;36548;50.506;30.834;2022-09-03T01:17:56;7.00;;;5.00;;
50591;SDS011;36548;50.506;30.834;2022-09-03T01:19:39;7.45;;;5.25;;
50591;SDS011;36548;50.506;30.834;2022-09-03T01:30:21;9.05;;;5.40;;
50591;SDS011;36548;50.506;30.834;2022-09-03T01:33:26;5.23;;;4.43;;
50591;SDS011;36548;50.506;30.834;2022-09-03T01:39:12;6.20;;;4.40;;
50591;SDS011;36548;50.506;30.834;2022-09-03T01:43:42;7.20;;;4.52;;
50591;SDS011;36548;50.506;30.834;2022-09-03T01:46:38;8.73;;;4.92;;
50591;SDS011;36548;50.506;30.834;2022-09-03T01:49:39;6.30;;;4.55;;
50591;SDS011;36548;50.506;30.834;2022-09-03T01:50:53;7.72;;;5.77;;
50591;SDS011;36548;50.506;30.834;2022-09-03T01:52:42;7.10;;;5.55;;
50591;SDS011;36548;50.506;30.834;2022-09-03T01:55:32;6.00;;;4.65;;
50591;SDS011;36548;50.506;30.834;2022-09-03T02:00:11;7.93;;;4.98;;
50591;SDS011;36548;50.506;30.834;2022-09-03T02:01:27;5.50;;;4.70;;
50591;SDS011;36548;50.506;30.834;2022-09-03T02:02:42;7.85;;;5.02;;
50591;SDS011;36548;50.506;30.834;2022-09-03T02:03:56;6.47;;;4.77;;
50591;SDS011;36548;50.506;30.834;2022-09-03T02:05:26;8.20;;;5.50;;
50591;SDS011;36548;50.506;30.834;2022-09-03T02:06:37;7.92;;;5.13;;
50591;SDS011;36548;50.506;30.834;2022-09-03T02:07:48;7.90;;;4.77;;
50591;SDS011;36548;50.506;30.834;2022-09-03T02:09:01;7.55;;;5.12;;
50591;SDS011;36548;50.506;30.834;2022-09-03T02:10:16;8.90;;;5.35;;
50591;SDS011;36548;50.506;30.834;2022-09-03T02:11:35;6.05;;;4.97;;
50591;SDS011;36548;50.506;30.834;2022-09-03T02:12:53;7.70;;;4.83;;
50591;SDS011;36548;50.506;30.834;2022-09-03T02:14:11;7.40;;;5.38;;
50591;SDS011;36548;50.506;30.834;2022-09-03T02:15:22;6.67;;;4.95;;
50591;SDS011;36548;50.506;30.834;2022-09-03T02:16:40;7.30;;;5.05;;
50591;SDS011;36548;50.506;30.834;2022-09-03T02:17:53;5.58;;;4.75;;
50591;SDS011;36548;50.506;30.834;2022-09-03T02:19:22;8.50;;;5.60;;
50591;SDS011;36548;50.506;30.834;2022-09-03T02:20:38;7.83;;;4.97;;
50591;SDS011;36548;50.506;30.834;2022-09-03T02:21:51;7.95;;;4.85;;
50591;SDS011;36548;50.506;30.834;2022-09-03T02:23:03;7.68;;;4.95;;
50591;SDS011;36548;50.506;30.834;2022-09-03T02:24:19;6.80;;;4.65;;
50591;SDS011;36548;50.506;30.834;2022-09-03T02:25:29;5.28;;;4.45;;
50591;SDS011;36548;50.506;30.834;2022-09-03T02:26:50;7.25;;;5.38;;
50591;SDS011;36548;50.506;30.834;2022-09-03T02:28:02;5.78;;;4.36;;
50591;SDS011;36548;50.506;30.834;2022-09-03T02:29:31;6.20;;;4.25;;
50591;SDS011;36548;50.506;30.834;2022-09-03T02:30:41;5.30;;;4.20;;
50591;SDS011;36548;50.506;30.834;2022-09-03T02:31:51;6.85;;;4.47;;
50591;SDS011;36548;50.506;30.834;2022-09-03T02:33:01;5.92;;;4.60;;
50591;SDS011;36548;50.506;30.834;2022-09-03T02:34:18;5.30;;;3.80;;
50591;SDS011;36548;50.506;30.834;2022-09-03T02:35:28;5.90;;;4.25;;
50591;SDS011;36548;50.506;30.834;2022-09-03T02:36:45;7.73;;;4.03;;
50591;SDS011;36548;50.506;30.834;2022-09-03T02:37:55;7.20;;;5.10;;
50591;SDS011;36548;50.506;30.834;2022-09-03T02:39:21;7.02;;;5.47;;
50591;SDS011;36548;50.506;30.834;2022-09-03T02:40:31;6.32;;;4.95;;
50591;SDS011;36548;50.506;30.834;2022-09-03T02:41:50;7.08;;;5.23;;
50591;SDS011;36548;50.506;30.834;2022-09-03T02:42:59;5.95;;;4.62;;
50591;SDS011;36548;50.506;30.834;2022-09-03T02:44:12;6.43;;;4.70;;
50591;SDS011;36548;50.506;30.834;2022-09-03T02:45:39;7.06;;;4.74;;
50591;SDS011;36548;50.506;30.834;2022-09-03T02:46:56;7.20;;;4.67;;
50591;SDS011;36548;50.506;30.834;2022-09-03T02:48:10;8.10;;;4.95;;
50591;SDS011;36548;50.506;30.834;2022-09-03T02:49:19;5.95;;;4.50;;
50591;SDS011;36548;50.506;30.834;2022-09-03T02:50:47;6.85;;;4.85;;
50591;SDS011;36548;50.506;30.834;2022-09-03T02:52:04;9.43;;;5.02;;
50591;SDS011;36548;50.506;30.834;2022-09-03T02:53:19;6.12;;;4.73;;
50591;SDS011;36548;50.506;30.834;2022-09-03T02:54:35;6.33;;;4.37;;
50591;SDS011;36548;50.506;30.834;2022-09-03T02:55:47;5.52;;;4.28;;
50591;SDS011;36548;50.506;30.834;2022-09-03T02:57:14;6.68;;;4.28;;
50591;SDS011;36548;50.506;30.834;2022-09-03T02:58:30;7.30;;;4.95;;
50591;SDS011;36548;50.506;30.834;2022-09-03T02:59:39;6.92;;;5.25;;
50591;SDS011;36548;50.506;30.834;2022-09-03T03:00:51;5.97;;;4.98;;
50591;SDS011;36548;50.506;30.834;2022-09-03T03:02:02;5.68;;;4.17;;
50591;SDS011;36548;50.506;30.834;2022-09-03T03:03:38;6.12;;;4.55;;
50591;SDS011;36548;50.506;30.834;2022-09-03T03:04:47;7.02;;;4.73;;
50591;SDS011;36548;50.506;30.834;2022-09-03T03:05:58;6.92;;;4.75;;
50591;SDS011;36548;50.506;30.834;2022-09-03T03:07:10;8.18;;;4.65;;
50591;SDS011;36548;50.506;30.834;2022-09-03T03:08:22;6.43;;;4.48;;
50591;SDS011;36548;50.506;30.834;2022-09-03T03:09:35;5.90;;;4.15;;
50591;SDS011;36548;50.506;30.834;2022-09-03T03:10:45;6.60;;;4.40;;
50591;SDS011;36548;50.506;30.834;2022-09-03T03:11:56;6.28;;;4.90;;
50591;SDS011;36548;50.506;30.834;2022-09-03T03:13:06;5.38;;;4.58;;
50591;SDS011;36548;50.506;30.834;2022-09-03T03:14:16;6.43;;;4.75;;
50591;SDS011;36548;50.506;30.834;2022-09-03T03:15:26;5.05;;;4.33;;
50591;SDS011;36548;50.506;30.834;2022-09-03T03:16:36;5.57;;;3.78;;
50591;SDS011;36548;50.506;30.834;2022-09-03T03:17:46;7.20;;;4.75;;
50591;SDS011;36548;50.506;30.834;2022-09-03T03:19:01;6.55;;;4.93;;
50591;SDS011;36548;50.506;30.834;2022-09-03T03:20:11;5.55;;;4.15;;
50591;SDS011;36548;50.506;30.834;2022-09-03T03:21:20;5.62;;;4.03;;
50591;SDS011;36548;50.506;30.834;2022-09-03T03:22:30;4.83;;;4.23;;
50591;SDS011;36548;50.506;30.834;2022-09-03T03:23:41;6.95;;;4.93;;
50591;SDS011;36548;50.506;30.834;2022-09-03T03:24:51;6.73;;;4.80;;
50591;SDS011;36548;50.506;30.834;2022-09-03T03:26:01;5.32;;;4.10;;
50591;SDS011;36548;50.506;30.834;2022-09-03T03:27:25;6.00;;;4.42;;
50591;SDS011;36548;50.506;30.834;2022-09-03T03:28:36;5.25;;;3.68;;
50591;SDS011;36548;50.506;30.834;2022-09-03T03:29:45;5.82;;;4.43;;
50591;SDS011;36548;50.506;30.834;2022-09-03T03:32:23;5.72;;;4.43;;
50591;SDS011;36548;50.506;30.834;2022-09-03T03:33:38;4.95;;;3.83;;
50591;SDS011;36548;50.506;30.834;2022-09-03T03:34:47;6.32;;;4.32;;
50591;SDS011;36548;50.506;30.834;2022-09-03T03:36:15;6.63;;;3.92;;
50591;SDS011;36548;50.506;30.834;2022-09-03T03:37:24;5.52;;;4.50;;
50591;SDS011;36548;50.506;30.834;2022-09-03T03:38:34;6.85;;;3.87;;
50591;SDS011;36548;50.506;30.834;2022-09-03T03:39:45;5.20;;;4.13;;
50591;SDS011;36548;50.506;30.834;2022-09-03T03:40:55;5.78;;;4.33;;
50591;SDS011;36548;50.506;30.834;2022-09-03T03:42:05;4.97;;;4.03;;
50591;SDS011;36548;50.506;30.834;2022-09-03T03:43:15;6.10;;;4.25;;
50591;SDS011;36548;50.506;30.834;2022-09-03T03:44:30;7.18;;;4.63;;
50591;SDS011;36548;50.506;30.834;2022-09-03T03:45:39;5.18;;;3.97;;
50591;SDS011;36548;50.506;30.834;2022-09-03T03:46:48;9.28;;;5.70;;
50591;SDS011;36548;50.506;30.834;2022-09-03T03:47:58;5.67;;;3.18;;
50591;SDS011;36548;50.506;30.834;2022-09-03T03:49:08;5.85;;;4.10;;
50591;SDS011;36548;50.506;30.834;2022-09-03T03:50:19;6.08;;;5.07;;
50591;SDS011;36548;50.506;30.834;2022-09-03T03:51:29;8.28;;;5.97;;
50591;SDS011;36548;50.506;30.834;2022-09-03T03:52:37;5.18;;;3.97;;
50591;SDS011;36548;50.506;30.834;2022-09-03T03:53:53;7.97;;;5.47;;
50591;SDS011;36548;50.506;30.834;2022-09-03T03:55:07;30.32;;;19.98;;
50591;SDS011;36548;50.506;30.834;2022-09-03T03:56:23;48.63;;;31.23;;
50591;SDS011;36548;50.506;30.834;2022-09-03T03:57:35;26.70;;;15.20;;
50591;SDS011;36548;50.506;30.834;2022-09-03T03:59:03;12.83;;;8.27;;
50591;SDS011;36548;50.506;30.834;2022-09-03T04:00:14;13.52;;;8.70;;
50591;SDS011;36548;50.506;30.834;2022-09-03T04:01:30;11.02;;;7.92;;
50591;SDS011;36548;50.506;30.834;2022-09-03T04:02:39;10.85;;;7.62;;
50591;SDS011;36548;50.506;30.834;2022-09-03T04:03:55;11.15;;;7.08;;
50591;SDS011;36548;50.506;30.834;2022-09-03T04:05:06;7.88;;;5.30;;
50591;SDS011;36548;50.506;30.834;2022-09-03T04:07:29;8.05;;;4.75;;
50591;SDS011;36548;50.506;30.834;2022-09-03T04:08:41;7.53;;;4.53;;
50591;SDS011;36548;50.506;30.834;2022-09-03T04:09:54;6.47;;;4.35;;
50591;SDS011;36548;50.506;30.834;2022-09-03T04:11:04;6.65;;;4.45;;
50591;SDS011;36548;50.506;30.834;2022-09-03T04:12:16;6.05;;;4.45;;
50591;SDS011;36548;50.506;30.834;2022-09-03T04:13:33;7.96;;;4.50;;
50591;SDS011;36548;50.506;30.834;2022-09-03T04:14:50;5.53;;;4.05;;
50591;SDS011;36548;50.506;30.834;2022-09-03T04:16:05;5.65;;;3.78;;
50591;SDS011;36548;50.506;30.834;2022-09-03T04:17:16;4.98;;;3.58;;
50591;SDS011;36548;50.506;30.834;2022-09-03T04:18:31;7.53;;;4.42;;
50591;SDS011;36548;50.506;30.834;2022-09-03T04:20:57;8.55;;;5.43;;
50591;SDS011;36548;50.506;30.834;2022-09-03T04:22:08;5.82;;;4.03;;
50591;SDS011;36548;50.506;30.834;2022-09-03T04:23:18;5.75;;;4.42;;
50591;SDS011;36548;50.506;30.834;2022-09-03T04:24:29;5.60;;;3.95;;
50591;SDS011;36548;50.506;30.834;2022-09-03T04:25:50;4.42;;;3.65;;
50591;SDS011;36548;50.506;30.834;2022-09-03T04:26:57;6.05;;;3.80;;
50591;SDS011;36548;50.506;30.834;2022-09-03T04:28:07;6.35;;;4.40;;
50591;SDS011;36548;50.506;30.834;2022-09-03T04:29:22;5.07;;;4.03;;
50591;SDS011;36548;50.506;30.834;2022-09-03T04:30:33;7.18;;;4.55;;
50591;SDS011;36548;50.506;30.834;2022-09-03T04:31:48;8.23;;;4.35;;
50591;SDS011;36548;50.506;30.834;2022-09-03T04:33:16;8.65;;;5.70;;
50591;SDS011;36548;50.506;30.834;2022-09-03T04:34:43;7.50;;;5.55;;
50591;SDS011;36548;50.506;30.834;2022-09-03T04:36:02;8.38;;;5.37;;
50591;SDS011;36548;50.506;30.834;2022-09-03T04:37:18;7.85;;;4.85;;
50591;SDS011;36548;50.506;30.834;2022-09-03T04:38:34;6.22;;;4.82;;
50591;SDS011;36548;50.506;30.834;2022-09-03T04:39:45;5.30;;;4.75;;
50591;SDS011;36548;50.506;30.834;2022-09-03T04:41:01;8.40;;;4.98;;
50591;SDS011;36548;50.506;30.834;2022-09-03T04:42:11;7.75;;;5.40;;
50591;SDS011;36548;50.506;30.834;2022-09-03T04:43:38;6.43;;;4.50;;
50591;SDS011;36548;50.506;30.834;2022-09-03T04:44:56;7.52;;;5.18;;
50591;SDS011;36548;50.506;30.834;2022-09-03T04:46:08;7.85;;;6.20;;
50591;SDS011;36548;50.506;30.834;2022-09-03T04:47:21;14.40;;;7.55;;
50591;SDS011;36548;50.506;30.834;2022-09-03T04:48:30;12.15;;;6.22;;
50591;SDS011;36548;50.506;30.834;2022-09-03T04:49:46;5.12;;;4.02;;
50591;SDS011;36548;50.506;30.834;2022-09-03T04:51:05;8.27;;;5.35;;
50591;SDS011;36548;50.506;30.834;2022-09-03T04:52:22;8.37;;;6.00;;
50591;SDS011;36548;50.506;30.834;2022-09-03T04:53:40;7.70;;;5.85;;
50591;SDS011;36548;50.506;30.834;2022-09-03T04:54:57;8.75;;;5.50;;
50591;SDS011;36548;50.506;30.834;2022-09-03T04:56:27;5.85;;;4.47;;
50591;SDS011;36548;50.506;30.834;2022-09-03T04:57:44;7.08;;;5.67;;
50591;SDS011;36548;50.506;30.834;2022-09-03T04:59:01;6.65;;;4.38;;
50591;SDS011;36548;50.506;30.834;2022-09-03T05:00:27;7.05;;;4.75;;
50591;SDS011;36548;50.506;30.834;2022-09-03T05:01:44;7.42;;;5.07;;
50591;SDS011;36548;50.506;30.834;2022-09-03T05:02:54;8.90;;;5.58;;
50591;SDS011;36548;50.506;30.834;2022-09-03T05:04:09;9.63;;;5.65;;
50591;SDS011;36548;50.506;30.834;2022-09-03T05:05:18;9.47;;;5.38;;
50591;SDS011;36548;50.506;30.834;2022-09-03T05:06:45;6.35;;;4.57;;
50591;SDS011;36548;50.506;30.834;2022-09-03T05:08:02;6.17;;;4.15;;
50591;SDS011;36548;50.506;30.834;2022-09-03T05:09:12;6.20;;;5.15;;
50591;SDS011;36548;50.506;30.834;2022-09-03T05:10:24;6.07;;;4.65;;
50591;SDS011;36548;50.506;30.834;2022-09-03T05:11:34;7.38;;;5.53;;
50591;SDS011;36548;50.506;30.834;2022-09-03T05:12:43;9.37;;;5.55;;
50591;SDS011;36548;50.506;30.834;2022-09-03T05:13:53;5.17;;;4.02;;
50591;SDS011;36548;50.506;30.834;2022-09-03T05:15:05;6.58;;;4.42;;
50591;SDS011;36548;50.506;30.834;2022-09-03T05:16:21;8.70;;;4.45;;
50591;SDS011;36548;50.506;30.834;2022-09-03T05:17:32;5.72;;;4.20;;
50591;SDS011;36548;50.506;30.834;2022-09-03T05:18:44;5.48;;;4.33;;
50591;SDS011;36548;50.506;30.834;2022-09-03T05:19:54;5.28;;;4.33;;
50591;SDS011;36548;50.506;30.834;2022-09-03T05:21:08;5.72;;;4.73;;
50591;SDS011;36548;50.506;30.834;2022-09-03T05:22:18;8.48;;;5.28;;
50591;SDS011;36548;50.506;30.834;2022-09-03T05:23:36;8.50;;;5.80;;
50591;SDS011;36548;50.506;30.834;2022-09-03T05:24:47;11.37;;;5.57;;
50591;SDS011;36548;50.506;30.834;2022-09-03T05:25:57;6.03;;;4.80;;
50591;SDS011;36548;50.506;30.834;2022-09-03T05:27:08;7.12;;;5.05;;
50591;SDS011;36548;50.506;30.834;2022-09-03T05:28:18;6.22;;;4.93;;
50591;SDS011;36548;50.506;30.834;2022-09-03T05:29:30;9.35;;;6.00;;
50591;SDS011;36548;50.506;30.834;2022-09-03T05:30:45;9.00;;;5.25;;
50591;SDS011;36548;50.506;30.834;2022-09-03T05:31:54;6.78;;;4.85;;
50591;SDS011;36548;50.506;30.834;2022-09-03T05:33:04;8.88;;;5.22;;
50591;SDS011;36548;50.506;30.834;2022-09-03T05:35:30;7.68;;;4.72;;
50591;SDS011;36548;50.506;30.834;2022-09-03T05:36:39;8.10;;;4.75;;
50591;SDS011;36548;50.506;30.834;2022-09-03T05:37:54;7.80;;;5.63;;
50591;SDS011;36548;50.506;30.834;2022-09-03T05:39:04;7.03;;;5.28;;
50591;SDS011;36548;50.506;30.834;2022-09-03T05:41:25;9.45;;;5.55;;
50591;SDS011;36548;50.506;30.834;2022-09-03T05:42:39;7.05;;;4.87;;
50591;SDS011;36548;50.506;30.834;2022-09-03T05:43:51;7.30;;;5.30;;
50591;SDS011;36548;50.506;30.834;2022-09-03T05:45:06;6.70;;;4.80;;
50591;SDS011;36548;50.506;30.834;2022-09-03T05:46:25;8.50;;;5.72;;
50591;SDS011;36548;50.506;30.834;2022-09-03T05:47:40;9.77;;;6.48;;
50591;SDS011;36548;50.506;30.834;2022-09-03T05:48:55;10.87;;;5.60;;
50591;SDS011;36548;50.506;30.834;2022-09-03T05:50:07;8.12;;;5.22;;
50591;SDS011;36548;50.506;30.834;2022-09-03T05:51:36;7.02;;;5.50;;
50591;SDS011;36548;50.506;30.834;2022-09-03T05:52:57;8.62;;;6.42;;
50591;SDS011;36548;50.506;30.834;2022-09-03T05:54:07;9.87;;;5.65;;
50591;SDS011;36548;50.506;30.834;2022-09-03T05:55:23;8.45;;;5.80;;
50591;SDS011;36548;50.506;30.834;2022-09-03T05:56:33;7.60;;;5.65;;
50591;SDS011;36548;50.506;30.834;2022-09-03T05:58:03;8.35;;;5.60;;
50591;SDS011;36548;50.506;30.834;2022-09-03T05:59:13;7.75;;;5.40;;
50591;SDS011;36548;50.506;30.834;2022-09-03T06:00:48;8.85;;;5.90;;
50591;SDS011;36548;50.506;30.834;2022-09-03T06:01:57;7.03;;;5.48;;
50591;SDS011;36548;50.506;30.834;2022-09-03T06:03:08;6.57;;;5.25;;
50591;SDS011;36548;50.506;30.834;2022-09-03T06:04:23;7.55;;;5.32;;
50591;SDS011;36548;50.506;30.834;2022-09-03T06:05:33;7.08;;;5.58;;
50591;SDS011;36548;50.506;30.834;2022-09-03T06:06:48;7.17;;;5.23;;
50591;SDS011;36548;50.506;30.834;2022-09-03T06:07:58;8.25;;;5.70;;
50591;SDS011;36548;50.506;30.834;2022-09-03T06:09:24;7.80;;;5.40;;
50591;SDS011;36548;50.506;30.834;2022-09-03T06:10:35;8.63;;;5.65;;
50591;SDS011;36548;50.506;30.834;2022-09-03T06:11:48;8.20;;;4.90;;
50591;SDS011;36548;50.506;30.834;2022-09-03T06:13:00;5.58;;;4.63;;
50591;SDS011;36548;50.506;30.834;2022-09-03T06:14:12;6.60;;;4.53;;
50591;SDS011;36548;50.506;30.834;2022-09-03T06:15:23;6.90;;;4.65;;
50591;SDS011;36548;50.506;30.834;2022-09-03T06:16:38;7.32;;;4.63;;
50591;SDS011;36548;50.506;30.834;2022-09-03T06:17:49;6.48;;;5.75;;
50591;SDS011;36548;50.506;30.834;2022-09-03T06:19:05;9.85;;;8.13;;
50591;SDS011;36548;50.506;30.834;2022-09-03T06:20:18;5.67;;;4.92;;
50591;SDS011;36548;50.506;30.834;2022-09-03T06:21:45;5.42;;;4.30;;
50591;SDS011;36548;50.506;30.834;2022-09-03T06:23:01;5.35;;;4.18;;
50591;SDS011;36548;50.506;30.834;2022-09-03T06:24:12;6.15;;;4.60;;
50591;SDS011;36548;50.506;30.834;2022-09-03T06:25:24;5.72;;;4.17;;
50591;SDS011;36548;50.506;30.834;2022-09-03T06:26:33;5.65;;;3.88;;
50591;SDS011;36548;50.506;30.834;2022-09-03T06:27:43;4.72;;;3.83;;
50591;SDS011;36548;50.506;30.834;2022-09-03T06:28:59;4.63;;;3.83;;
50591;SDS011;36548;50.506;30.834;2022-09-03T06:30:09;4.43;;;3.52;;
50591;SDS011;36548;50.506;30.834;2022-09-03T06:31:25;6.78;;;3.87;;
50591;SDS011;36548;50.506;30.834;2022-09-03T06:32:42;6.83;;;4.22;;
50591;SDS011;36548;50.506;30.834;2022-09-03T06:34:13;5.10;;;4.40;;
50591;SDS011;36548;50.506;30.834;2022-09-03T06:35:23;7.58;;;4.58;;
50591;SDS011;36548;50.506;30.834;2022-09-03T06:36:38;5.80;;;4.03;;
50591;SDS011;36548;50.506;30.834;2022-09-03T06:37:49;6.50;;;4.57;;
50591;SDS011;36548;50.506;30.834;2022-09-03T06:40:10;5.52;;;3.63;;
50591;SDS011;36548;50.506;30.834;2022-09-03T06:41:31;5.90;;;4.40;;
50591;SDS011;36548;50.506;30.834;2022-09-03T06:42:42;4.65;;;3.70;;
50591;SDS011;36548;50.506;30.834;2022-09-03T06:43:59;5.28;;;3.54;;
50591;SDS011;36548;50.506;30.834;2022-09-03T06:45:10;4.97;;;3.58;;
50591;SDS011;36548;50.506;30.834;2022-09-03T06:46:21;6.72;;;3.38;;
50591;SDS011;36548;50.506;30.834;2022-09-03T06:47:37;6.40;;;3.60;;
50591;SDS011;36548;50.506;30.834;2022-09-03T06:48:46;6.43;;;4.17;;
50591;SDS011;36548;50.506;30.834;2022-09-03T06:50:01;8.87;;;4.52;;
50591;SDS011;36548;50.506;30.834;2022-09-03T06:51:12;7.07;;;3.98;;
50591;SDS011;36548;50.506;30.834;2022-09-03T06:52:43;5.88;;;3.77;;
50591;SDS011;36548;50.506;30.834;2022-09-03T06:54:18;6.55;;;4.17;;
50591;SDS011;36548;50.506;30.834;2022-09-03T06:55:27;6.77;;;4.12;;
50591;SDS011;36548;50.506;30.834;2022-09-03T07:04:24;7.73;;;4.80;;
50591;SDS011;36548;50.506;30.834;2022-09-03T07:05:37;5.35;;;4.20;;
50591;SDS011;36548;50.506;30.834;2022-09-03T07:06:53;5.82;;;4.45;;
50591;SDS011;36548;50.506;30.834;2022-09-03T07:08:02;6.25;;;3.95;;
50591;SDS011;36548;50.506;30.834;2022-09-03T07:09:29;7.40;;;4.05;;
50591;SDS011;36548;50.506;30.834;2022-09-03T07:10:45;7.08;;;3.85;;
50591;SDS011;36548;50.506;30.834;2022-09-03T07:11:54;5.82;;;4.38;;
50591;SDS011;36548;50.506;30.834;2022-09-03T07:13:09;6.03;;;4.27;;
50591;SDS011;36548;50.506;30.834;2022-09-03T07:14:19;5.13;;;4.38;;
50591;SDS011;36548;50.506;30.834;2022-09-03T07:15:47;5.32;;;4.00;;
50591;SDS011;36548;50.506;30.834;2022-09-03T07:17:04;4.65;;;3.83;;
50591;SDS011;36548;50.506;30.834;2022-09-03T07:18:13;4.83;;;3.70;;
50591;SDS011;36548;50.506;30.834;2022-09-03T07:19:22;8.25;;;4.45;;
50591;SDS011;36548;50.506;30.834;2022-09-03T07:20:37;7.52;;;6.42;;
50591;SDS011;36548;50.506;30.834;2022-09-03T07:21:47;13.90;;;9.05;;
50591;SDS011;36548;50.506;30.834;2022-09-03T07:23:02;5.98;;;4.85;;
50591;SDS011;36548;50.506;30.834;2022-09-03T07:24:11;6.77;;;4.18;;
50591;SDS011;36548;50.506;30.834;2022-09-03T07:25:38;7.73;;;4.45;;
50591;SDS011;36548;50.506;30.834;2022-09-03T07:26:48;5.25;;;3.80;;
50591;SDS011;36548;50.506;30.834;2022-09-03T07:28:04;5.43;;;4.00;;
50591;SDS011;36548;50.506;30.834;2022-09-03T07:29:14;5.25;;;3.75;;
50591;SDS011;36548;50.506;30.834;2022-09-03T07:30:25;6.68;;;3.72;;
50591;SDS011;36548;50.506;30.834;2022-09-03T07:31:41;5.02;;;4.20;;
50591;SDS011;36548;50.506;30.834;2022-09-03T07:34:08;6.60;;;4.55;;
50591;SDS011;36548;50.506;30.834;2022-09-03T07:35:19;6.33;;;4.90;;
50591;SDS011;36548;50.506;30.834;2022-09-03T07:36:38;7.47;;;5.00;;
50591;SDS011;36548;50.506;30.834;2022-09-03T07:37:50;11.13;;;7.03;;
50591;SDS011;36548;50.506;30.834;2022-09-03T07:39:18;9.05;;;6.70;;
50591;SDS011;36548;50.506;30.834;2022-09-03T07:40:33;8.82;;;6.50;;
50591;SDS011;36548;50.506;30.834;2022-09-03T07:41:43;10.18;;;6.53;;
50591;SDS011;36548;50.506;30.834;2022-09-03T07:42:59;8.62;;;6.28;;
50591;SDS011;36548;50.506;30.834;2022-09-03T07:44:14;9.08;;;6.50;;
50591;SDS011;36548;50.506;30.834;2022-09-03T07:45:28;9.90;;;6.50;;
50591;SDS011;36548;50.506;30.834;2022-09-03T07:46:43;7.35;;;5.85;;
50591;SDS011;36548;50.506;30.834;2022-09-03T07:47:56;9.40;;;5.20;;
50591;SDS011;36548;50.506;30.834;2022-09-03T07:49:12;6.95;;;5.42;;
50591;SDS011;36548;50.506;30.834;2022-09-03T07:50:24;6.55;;;4.98;;
50591;SDS011;36548;50.506;30.834;2022-09-03T07:51:40;7.45;;;5.22;;
50591;SDS011;36548;50.506;30.834;2022-09-03T07:52:54;7.40;;;4.85;;
50591;SDS011;36548;50.506;30.834;2022-09-03T07:54:10;6.48;;;4.47;;
50591;SDS011;36548;50.506;30.834;2022-09-03T07:55:20;8.30;;;4.60;;
50591;SDS011;36548;50.506;30.834;2022-09-03T07:56:48;7.95;;;5.00;;
50591;SDS011;36548;50.506;30.834;2022-09-03T07:58:03;7.53;;;4.57;;
50591;SDS011;36548;50.506;30.834;2022-09-03T07:59:15;6.48;;;4.77;;
50591;SDS011;36548;50.506;30.834;2022-09-03T08:00:30;7.52;;;4.03;;
50591;SDS011;36548;50.506;30.834;2022-09-03T08:01:42;6.92;;;4.75;;
50591;SDS011;36548;50.506;30.834;2022-09-03T08:03:09;6.02;;;4.18;;
50591;SDS011;36548;50.506;30.834;2022-09-03T08:04:25;7.30;;;3.90;;
50591;SDS011;36548;50.506;30.834;2022-09-03T08:05:39;6.22;;;4.10;;
50591;SDS011;36548;50.506;30.834;2022-09-03T08:06:55;6.73;;;4.88;;
50591;SDS011;36548;50.506;30.834;2022-09-03T08:08:06;6.13;;;3.85;;
50591;SDS011;36548;50.506;30.834;2022-09-03T08:09:21;5.68;;;4.30;;
50591;SDS011;36548;50.506;30.834;2022-09-03T08:10:34;5.58;;;4.23;;
50591;SDS011;36548;50.506;30.834;2022-09-03T08:12:03;5.07;;;4.02;;
50591;SDS011;36548;50.506;30.834;2022-09-03T08:13:20;4.80;;;3.73;;
50591;SDS011;36548;50.506;30.834;2022-09-03T08:14:29;6.35;;;4.30;;
50591;SDS011;36548;50.506;30.834;2022-09-03T08:15:54;5.80;;;3.70;;
50591;SDS011;36548;50.506;30.834;2022-09-03T08:17:05;5.65;;;3.75;;
50591;SDS011;36548;50.506;30.834;2022-09-03T08:18:33;6.32;;;3.97;;
50591;SDS011;36548;50.506;30.834;2022-09-03T08:19:51;5.38;;;3.78;;
50591;SDS011;36548;50.506;30.834;2022-09-03T08:21:00;8.48;;;3.70;;
50591;SDS011;36548;50.506;30.834;2022-09-03T08:22:15;5.10;;;3.92;;
50591;SDS011;36548;50.506;30.834;2022-09-03T08:23:24;4.77;;;3.87;;
50591;SDS011;36548;50.506;30.834;2022-09-03T08:24:51;7.42;;;3.95;;
50591;SDS011;36548;50.506;30.834;2022-09-03T08:26:09;6.83;;;4.00;;
50591;SDS011;36548;50.506;30.834;2022-09-03T08:27:19;4.48;;;3.72;;
50591;SDS011;36548;50.506;30.834;2022-09-03T08:28:36;8.07;;;4.05;;
50591;SDS011;36548;50.506;30.834;2022-09-03T08:29:46;4.15;;;3.15;;
50591;SDS011;36548;50.506;30.834;2022-09-03T08:31:16;5.75;;;3.78;;
50591;SDS011;36548;50.506;30.834;2022-09-03T08:32:33;4.87;;;3.35;;
50591;SDS011;36548;50.506;30.834;2022-09-03T08:33:44;5.40;;;3.42;;
50591;SDS011;36548;50.506;30.834;2022-09-03T08:35:01;6.67;;;3.45;;
50591;SDS011;36548;50.506;30.834;2022-09-03T08:36:14;3.83;;;3.03;;
50591;SDS011;36548;50.506;30.834;2022-09-03T08:37:32;5.22;;;3.02;;
50591;SDS011;36548;50.506;30.834;2022-09-03T08:38:41;4.02;;;2.58;;
50591;SDS011;36548;50.506;30.834;2022-09-03T08:40:11;4.35;;;2.80;;
50591;SDS011;36548;50.506;30.834;2022-09-03T08:42:52;3.33;;;2.07;;
50591;SDS011;36548;50.506;30.834;2022-09-03T08:45:58;2.52;;;2.32;;
50591;SDS011;36548;50.506;30.834;2022-09-03T08:47:15;3.65;;;2.20;;
50591;SDS011;36548;50.506;30.834;2022-09-03T08:48:28;3.28;;;2.15;;